Listado único de aspirantes (Periodo de valoración 31 octubre de 2021)


* Listado ordenado por Apellidos, Nombre. Recuerde que también puede ordenarlo por el Total Autobaremo

Listado único de aspirantes admitidos en turno libre reserva de plazas para personas con discapacidad en la bolsa de selección de personal estatutario temporal, categoría: Enfermera
Apellidos, Nombre Exp. SAS Auto. Exp. NO SAS Auto. Form. Auto. otros méritos Total Auto. Exp. SAS Baremo Exp. NO SAS Baremo Form. Baremo Otros méritos Punt. Total Baremo Fecha Act.
ROMO RODRIGUEZ, CARMEN 3,300 23,700 30,000 0,300 57,300 3,300 23,200 30,000 0,000 56,500 15/12/2022
ROSA DURÁN, VIRGINIA 18,600 15,900 36,000 3,000 73,500 18,600 15,900 36,000 3,000 73,500 15/12/2022
ROSADO GARCÍA, MARÍA DEL CARMEN 27,600 1,200 36,000 5,750 70,550 27,600 1,200 36,000 5,350 70,150 15/12/2022
RUBIO CUETO, REMEDIOS 24,000 0,000 36,000 1,700 61,700 24,000 0,000 36,000 0,500 60,500 15/12/2022
RUEDA ALBA, Mª CAPILLA 1,000 31,450 38,000 3,000 73,450 1,000 10,450 35,000 3,000 49,450 15/12/2022
RUIZ ALVAREZ, MERCEDES 15,000 0,000 34,000 0,000 49,000 15,000 0,000 30,475 0,000 45,475 15/12/2022
RUIZ BURGOS, MARIA TERESA 37,800 1,800 36,000 0,050 75,650 37,800 1,800 36,000 0,050 75,650 15/12/2022
RUIZ FUENTES, MARIA DEL CARMEN 0,000 25,500 32,000 3,000 60,500 0,000 22,800 30,000 3,000 55,800 15/12/2022
RUIZ GARCIA, BEGOÑA 16,050 2,800 33,500 3,000 55,350 16,050 0,000 33,500 3,000 52,550 15/12/2022
RUIZ LERMA, MARI ANGELES 0,000 0,000 33,000 10,000 43,000 0,000 0,000 26,100 0,000 26,100 15/12/2022
RUIZ MORENO, MANUEL 70,000 0,000 30,000 0,000 100,000 70,000 0,000 30,000 0,000 100,000 15/12/2022
RUIZ ORTIZ, MARINA 3,600 2,600 25,500 0,000 31,700 3,600 0,000 10,750 0,000 14,350 15/12/2022
RUIZ SORIANO, CARMEN 40,200 0,900 32,000 6,000 79,100 40,200 0,000 32,000 6,000 78,200 15/12/2022
SACRISTAN DEL CASTILLO, AMPARO 70,000 0,000 30,000 0,150 100,150 70,000 0,000 30,000 0,150 100,150 15/12/2022
SAEZ MARTINEZ, JOSE LUIS 0,000 4,500 36,000 1,600 42,100 0,000 0,600 30,000 0,000 30,600 15/12/2022
SAIZ CAMBRONERO, MARIA JOSE 0,900 30,850 36,000 0,000 67,750 0,900 12,800 29,125 0,000 42,825 15/12/2022
SALAS ARRABAL, CRISTINA 1,200 0,000 36,000 0,000 37,200 1,200 0,000 36,000 0,000 37,200 15/12/2022
SALAZAR ROMERO, SANTIAGO 18,000 1,400 42,000 1,450 62,850 18,000 0,000 36,000 0,150 54,150 15/12/2022
SALCEDO GONZALEZ, ANTONIO JUAN 70,000 0,000 30,000 3,000 103,000 70,000 0,000 30,000 3,000 103,000 15/12/2022
SALINAS RIVADA, MARTA 5,100 0,000 30,000 0,000 35,100 5,100 0,000 30,000 0,000 35,100 15/12/2022
SANCHEZ ALVAREZ, PATROCINIO 70,000 6,600 30,000 0,300 100,300 70,000 6,600 30,000 0,050 100,050 15/12/2022
SÁNCHEZ DE LECHINA TEJADA, CRISTINA 2,400 0,000 33,000 0,000 35,400 2,400 0,000 33,000 0,000 35,400 15/12/2022
SANCHEZ FERNANDEZ, MARIA JOSE 0,000 0,000 13,050 0,000 13,050 0,000 0,000 3,275 0,000 3,275 15/12/2022
SÁNCHEZ GARCÍA, ANA CRISTINA 21,300 13,300 36,000 1,000 71,600 21,300 1,800 36,000 1,000 60,100 15/12/2022
SANCHEZ LEAL, MARIA DE LA LUZ 54,600 17,550 39,000 6,500 115,500 54,600 17,550 36,000 6,000 112,000 15/12/2022
SÁNCHEZ RODRÍGUEZ, BLANCA 0,000 3,600 36,000 0,000 39,600 0,000 1,200 36,000 0,000 37,200 15/12/2022
SANCHEZ ROMERO, NURIA 51,300 0,000 36,000 0,000 87,300 51,300 0,000 36,000 0,000 87,300 15/12/2022
SÁNCHEZ RUIZ, JESÚS 0,000 1,850 30,000 0,000 31,850 0,000 0,000 30,000 0,000 30,000 15/12/2022
SANCHEZ SAN MATIAS, PEDRO 29,700 69,300 32,000 0,075 102,075 29,700 62,400 32,000 0,000 102,000 15/12/2022
SÁNCHEZ SEGOVIA, ALEJANDRO 0,600 7,800 33,000 0,000 41,400 0,600 0,000 33,000 0,000 33,600 15/12/2022
SANCHEZ VALLECILLO, MARIA ISABEL 31,500 0,050 39,000 0,000 70,550 31,500 0,000 39,000 0,000 70,500 15/12/2022
SANTANA CALVO, ANA 25,200 0,500 30,600 0,000 56,300 25,200 0,000 14,765 0,000 39,965 15/12/2022
SANTISTEBAN MONTERO, CRISTINA 0,000 0,000 30,000 0,000 30,000 0,000 0,000 30,000 0,000 30,000 15/12/2022
SANTOS AGUDO, JOEL 20,400 0,000 30,000 0,000 50,400 20,400 0,000 30,000 0,000 50,400 15/12/2022
SARHAN VIOLA, YOLIN JULIA 17,700 0,000 36,000 0,000 53,700 17,700 0,000 36,000 0,000 53,700 15/12/2022
SARMIENTO SOLIS, CRISTINA 70,000 0,000 33,000 0,000 103,000 70,000 0,000 33,000 0,000 103,000 15/12/2022
SEDA GUZMÁN, TERESA 20,700 0,750 30,000 0,100 51,550 20,700 0,000 4,300 0,000 25,000 15/12/2022
SEGURA ARENAS, ANA MARIA 42,600 8,100 33,000 1,000 84,700 42,600 8,100 33,000 0,700 84,400 15/12/2022
SEPÚLVEDA DORADO, RUBÉN 1,500 0,000 6,400 0,000 7,900 1,500 0,000 6,400 0,000 7,900 15/12/2022
SEPULVEDA PEREZ-BLANCO, MARIA LUISA 10,500 9,400 13,500 0,000 33,400 10,500 3,400 2,250 0,000 16,150 15/12/2022
SERRANO CABALLERO, EVA MARÍA 21,000 0,000 36,000 0,000 57,000 21,000 0,000 36,000 0,000 57,000 15/12/2022
SERRANO FERNANDEZ, ANTONIO JOSE 23,550 7,050 39,000 0,475 70,075 23,550 0,150 39,000 0,200 62,900 15/12/2022
SERRANO NUÑEZ, GASPAR 60,900 0,000 36,000 3,150 100,050 60,900 0,000 36,000 3,100 100,000 15/12/2022
SERRANO PAJUELO, MARIA ESTRELLA 1,200 16,600 36,000 0,800 54,600 1,200 14,200 36,000 0,500 51,900 15/12/2022
SIERRAS REYES, Mª DEL MAR 0,600 18,700 36,000 1,950 57,250 0,600 18,700 36,000 1,200 56,500 15/12/2022
SOFLETEA MOTOC, SILVIA 24,500 0,000 33,000 0,400 57,900 24,500 0,000 23,000 0,400 47,900 15/12/2022
SOLANA LÁZARO, EDUARDO 8,400 18,100 34,000 0,000 60,500 8,400 8,800 30,400 0,000 47,600 15/12/2022
SOM ROMÁN, LAURA 5,400 0,000 36,000 0,500 41,900 5,400 0,000 36,000 0,500 41,900 15/12/2022
SOM RUIZ, CARLOS 21,600 15,900 36,000 0,000 73,500 21,600 15,900 36,000 0,000 73,500 15/12/2022
SOTO PRIETO, DANIEL 0,000 37,100 35,000 1,800 73,900 0,000 37,100 35,000 0,050 72,150 15/12/2022
SOTOS SOLANO, ANA DEL CARMEN 0,000 29,400 16,675 0,450 46,525 0,000 6,900 10,950 0,000 17,850 15/12/2022
SUBIRES VALLEJO, JUAN CARLOS 11,900 1,900 39,000 6,000 58,800 11,900 1,900 39,000 6,000 58,800 15/12/2022
SUPLET GONZALEZ, Mª JOSE 70,000 0,000 36,000 0,225 106,225 70,000 0,000 36,000 0,075 106,075 15/12/2022
TAPIA PORRAS, MARÍA LUISA 4,500 0,000 36,000 1,000 41,500 4,500 0,000 36,000 1,000 41,500 15/12/2022
TENORIO DA SILVA, MARINA 7,200 0,200 32,000 0,000 39,400 7,200 0,000 32,000 0,000 39,200 15/12/2022
TERUEL TIRADO, PAULA 0,900 0,000 30,000 0,000 30,900 0,900 0,000 30,000 0,000 30,900 15/12/2022
TIRADO QUINTANA, CARMEN 11,650 0,050 28,250 0,000 39,950 11,650 0,000 8,750 0,000 20,400 15/12/2022
TOLEDO LOPEZ, SOLEDAD 3,600 2,700 36,000 0,000 42,300 3,600 0,300 36,000 0,000 39,900 15/12/2022
TORREJÓN VAZQUEZ, EVA MARIA 2,100 2,550 22,500 0,300 27,450 2,100 0,000 21,000 0,000 23,100 15/12/2022
TORRES AGUILAR, GEMA 17,700 7,200 39,000 0,150 64,050 17,700 7,200 36,000 0,050 60,950 15/12/2022
TORRES MACÍAS, BERNARDO 67,450 0,000 33,000 1,000 101,450 67,450 0,000 33,000 1,000 101,450 15/12/2022
TORRES MARTINEZ, FRANCISCO JAVIER 0,000 14,700 30,000 0,000 44,700 0,000 3,900 30,000 0,000 33,900 15/12/2022
TORRES SEVILLA, ROCÍO 0,000 51,600 36,000 0,000 87,600 0,000 51,600 36,000 0,000 87,600 15/12/2022
TRABADELA ALMAGRO, ALICIA 23,100 0,000 36,000 0,600 59,700 23,100 0,000 24,625 0,600 48,325 15/12/2022
TRUJILLO RUIZ, Mª DE GRACIA 0,000 7,500 36,000 0,000 43,500 0,000 4,800 6,000 0,000 10,800 15/12/2022
TRUJILLO VAZQUEZ, FATIMA 19,200 14,850 32,000 3,000 69,050 19,200 10,150 32,000 3,000 64,350 15/12/2022
UCEDA ARMENTEROS, MANUEL ANGEL 0,000 1,500 30,000 0,000 31,500 0,000 1,500 30,000 0,000 31,500 15/12/2022
VALLE GIL, MARÍA DEL PILAR 36,900 0,300 29,875 3,000 70,075 36,900 0,300 27,500 0,000 64,700 15/12/2022
VALLEJO FERNANDEZ, ALVARO 11,700 2,550 36,000 0,500 50,750 11,700 2,550 36,000 0,500 50,750 15/12/2022
VALLEJO MORENTE, LOURDES 6,000 1,700 36,000 0,300 44,000 6,000 0,850 36,000 0,000 42,850 15/12/2022
VARGAS ROBLES, GADOR 1,200 23,400 28,850 0,650 54,100 1,200 23,100 27,850 0,000 52,150 15/12/2022
VAZQUEZ MADRID, MARIA TERESA 5,400 35,400 34,000 0,300 75,100 5,400 35,400 34,000 0,000 74,800 15/12/2022
VELASCO ÁLAMO, DAVID 0,000 6,300 32,000 0,000 38,300 0,000 6,300 32,000 0,000 38,300 15/12/2022
VELAZQUEZ COCA, MARIA CARMEN 0,900 32,000 30,000 0,200 63,100 0,900 2,400 30,000 0,050 33,350 15/12/2022
VELAZQUEZ CORONILLA, FRANCISCO MANUEL 70,000 0,000 30,000 0,300 100,300 70,000 0,000 30,000 0,050 100,050 15/12/2022
VELEZ BAQUERO, ENRIQUE 58,800 3,700 30,000 0,075 92,575 58,800 3,700 30,000 0,075 92,575 15/12/2022
VICENTE MORA, MARIA DEL CARMEN 38,100 9,700 36,000 4,000 87,800 38,100 7,000 36,000 4,000 85,100 15/12/2022
VICO ÁLVAREZ, IRIS 9,900 0,000 32,000 1,000 42,900 9,900 0,000 32,000 0,000 41,900 15/12/2022
VIEDMA CONTRERAS, Mª DOLORES 26,100 0,200 33,000 0,900 60,200 26,100 0,200 33,000 0,600 59,900 15/12/2022
VILAR PALOMO, SAMUEL 42,000 0,000 39,000 2,750 83,750 42,000 0,000 33,000 1,000 76,000 15/12/2022
VILLA NAVARRO, MARÍA DE LAS NIEVES 26,650 0,000 36,000 0,000 62,650 26,650 0,000 36,000 0,000 62,650 15/12/2022
VILLALDEA VICO, MARIA DOLORES 3,300 0,000 30,000 0,000 33,300 3,300 0,000 30,000 0,000 33,300 15/12/2022
VILLENA BARBA, PILAR 44,400 2,850 36,000 0,000 83,250 44,400 2,550 36,000 0,000 82,950 15/12/2022
VILLODRES REDING, ELENA VICTORIA 1,200 0,000 0,000 0,000 1,200 1,200 0,000 0,000 0,000 1,200 15/12/2022
YAGO RICO, GLORIA 0,000 0,600 30,000 2,900 33,500 0,000 0,600 0,000 0,200 0,800 15/12/2022
ZAPATA GARCIA, BEGOÑA 0,300 11,400 10,925 0,000 22,625 0,300 0,000 8,600 0,000 8,900 15/12/2022
ZAPATA GONZÁLEZ, MªANGELES 1,200 2,550 34,000 0,000 37,750 1,200 0,000 34,000 0,000 35,200 15/12/2022
ZARAGOZA FERNÁNDEZ, GLORIA MARÍA 0,000 6,300 35,500 0,300 42,100 0,000 0,000 8,450 0,000 8,450 15/12/2022
ZORRILLA GODOY, JUAN ANTONIO 0,000 8,400 36,000 3,200 47,600 0,000 8,400 33,000 3,050 44,450 15/12/2022

* Los candidatos marcados con un asterisco no alcanzan la nota mínima exigida una vez baremados

- Al posicionarse sobre el número de página le aparecerá el rango alfabético de apellidos, nombre que contiene dicha página

[1]  [2]  [3] 


Color de candidatos/as que por autobaremo alcanzan puntuación mínima para formar parte de la bolsa Candidatos/as que por autobaremo alcanzan puntuación mínima para formar parte de la bolsa

Color de Candidatos/as que no alcanzan puntuación mínima para formar parte de la bolsa Candidatos/as que no alcanzan puntuación mínima para formar parte de la bolsa



[Volver]